createdAt,value
2023-01-19T00:07:22.219Z,508.00
2023-01-19T00:54:42.804Z,500.00
2023-01-19T00:55:43.773Z,500.00
2023-01-19T00:56:43.777Z,500.00
2023-01-19T00:57:43.750Z,500.00
2023-01-19T00:58:43.737Z,500.00
2023-01-19T00:59:43.731Z,500.00
2023-01-19T01:00:43.759Z,450.00
2023-01-19T01:01:45.002Z,426.00
2023-01-19T01:02:43.999Z,427.00
2023-01-19T01:03:43.697Z,430.00
2023-01-19T01:04:43.683Z,449.00
2023-01-19T01:05:43.673Z,469.00
2023-01-19T01:06:43.668Z,496.00
2023-01-19T01:07:43.656Z,500.00
2023-01-19T01:08:43.661Z,503.00
2023-01-19T01:09:43.642Z,503.00
2023-01-19T01:10:43.652Z,500.00
2023-01-19T01:11:43.618Z,500.00
2023-01-19T01:12:57.740Z,500.00
2023-01-19T01:13:43.600Z,500.00
2023-01-19T01:14:43.604Z,497.00
2023-01-19T01:15:43.584Z,488.00
2023-01-19T01:16:43.635Z,482.00
2023-01-19T01:17:43.570Z,469.00
2023-01-19T01:18:43.554Z,500.00
2023-01-19T01:19:43.550Z,500.00
2023-01-19T01:20:43.535Z,504.00
2023-01-19T01:21:43.531Z,502.00
2023-01-19T01:22:43.520Z,504.00
2023-01-19T01:23:43.513Z,504.00
2023-01-19T01:24:43.509Z,504.00
2023-01-19T01:25:43.499Z,502.00
2023-01-19T01:26:43.508Z,502.00
2023-01-19T01:27:43.478Z,503.00
2023-01-19T01:28:43.460Z,502.00
2023-01-19T01:29:43.464Z,507.00
2023-01-19T01:30:43.588Z,504.00
2023-01-19T01:31:43.517Z,504.00
2023-01-19T01:32:43.451Z,507.00
2023-01-19T01:33:43.424Z,508.00
2023-01-19T01:34:43.404Z,508.00
2023-01-19T01:35:43.406Z,500.00
2023-01-19T01:36:43.406Z,503.00
2023-01-19T01:37:43.395Z,505.00
2023-01-19T01:38:43.379Z,503.00
2023-01-19T01:39:43.365Z,508.00
2023-01-19T01:40:43.351Z,504.00
2023-01-19T01:41:43.347Z,504.00
2023-01-19T01:42:43.422Z,505.00
2023-01-19T01:43:43.345Z,511.00
2023-01-19T01:44:43.315Z,502.00
2023-01-19T01:45:43.331Z,506.00
2023-01-19T01:46:43.301Z,508.00
2023-01-19T01:47:43.295Z,510.00
2023-01-19T01:48:43.281Z,516.00
2023-01-19T01:49:43.270Z,510.00
2023-01-19T01:50:43.260Z,509.00
2023-01-19T01:51:43.256Z,513.00
2023-01-19T01:52:43.249Z,507.00
2023-01-19T01:53:43.240Z,508.00
2023-01-19T01:54:43.228Z,509.00
2023-01-19T01:55:43.219Z,508.00
2023-01-19T01:56:43.202Z,506.00
2023-01-19T01:57:43.219Z,506.00
2023-01-19T01:58:43.217Z,501.00
2023-01-19T01:59:43.179Z,513.00
2023-01-19T02:00:43.267Z,510.00
2023-01-19T02:01:43.236Z,510.00
2023-01-19T02:02:43.152Z,511.00
2023-01-19T02:03:43.150Z,510.00
2023-01-19T02:04:43.132Z,510.00
2023-01-19T02:05:43.120Z,508.00
2023-01-19T02:06:43.122Z,510.00
2023-01-19T02:07:43.106Z,510.00
2023-01-19T02:08:43.103Z,515.00
2023-01-19T02:09:43.094Z,504.00
2023-01-19T02:10:43.076Z,510.00
2023-01-19T02:11:43.069Z,507.00
2023-01-19T02:12:43.064Z,510.00
2023-01-19T02:13:43.057Z,509.00
2023-01-19T02:14:43.075Z,511.00
2023-01-19T02:15:43.041Z,503.00
2023-01-19T02:16:43.102Z,503.00
2023-01-19T02:17:43.015Z,507.00
2023-01-19T02:18:43.019Z,509.00
2023-01-19T02:19:42.995Z,503.00
2023-01-19T02:20:43.008Z,508.00
2023-01-19T02:21:43.007Z,505.00
2023-01-19T02:22:42.967Z,507.00
2023-01-19T02:23:42.962Z,509.00
2023-01-19T02:24:42.951Z,504.00
2023-01-19T02:25:42.947Z,507.00
2023-01-19T02:26:42.931Z,508.00
2023-01-19T02:27:42.927Z,510.00
2023-01-19T02:28:42.916Z,509.00
2023-01-19T02:29:42.915Z,505.00
2023-01-19T02:30:42.936Z,503.00
2023-01-19T02:31:42.895Z,508.00
2023-01-19T02:32:42.880Z,505.00
2023-01-19T02:33:42.873Z,510.00
2023-01-19T02:34:42.865Z,502.00
2023-01-19T02:35:42.846Z,508.00
2023-01-19T02:36:42.841Z,509.00
2023-01-19T02:37:42.833Z,505.00
2023-01-19T02:38:42.823Z,506.00
2023-01-19T02:39:42.818Z,505.00
2023-01-19T02:40:42.810Z,512.00
2023-01-19T02:41:42.797Z,508.00
2023-01-19T02:42:42.795Z,508.00
2023-01-19T02:43:42.775Z,500.00
2023-01-19T02:44:42.774Z,502.00
2023-01-19T02:45:42.888Z,511.00
2023-01-19T02:46:42.815Z,500.00
2023-01-19T02:47:42.767Z,506.00
2023-01-19T02:48:42.762Z,511.00
2023-01-19T02:49:42.758Z,508.00
2023-01-19T02:50:42.719Z,504.00
2023-01-19T02:51:42.708Z,502.00
2023-01-19T02:52:42.693Z,508.00
2023-01-19T02:53:42.700Z,513.00
2023-01-19T02:54:42.693Z,512.00
2023-01-19T02:55:42.670Z,512.00
2023-01-19T02:56:42.665Z,509.00
2023-01-19T02:57:42.655Z,512.00
2023-01-19T02:58:42.652Z,509.00
2023-01-19T02:59:42.630Z,515.00
2023-01-19T03:00:42.622Z,512.00
2023-01-19T03:01:42.729Z,512.00
2023-01-19T03:02:42.662Z,513.00
2023-01-19T03:03:42.598Z,513.00
2023-01-19T03:04:42.591Z,514.00
2023-01-19T03:05:42.575Z,510.00
2023-01-19T03:06:42.570Z,507.00
2023-01-19T03:07:42.583Z,507.00
2023-01-19T03:08:42.575Z,508.00
2023-01-19T03:09:42.545Z,504.00
2023-01-19T03:10:42.531Z,508.00
2023-01-19T03:11:42.584Z,510.00
2023-01-19T03:12:42.511Z,510.00
2023-01-19T03:13:42.503Z,504.00
2023-01-19T03:14:42.507Z,514.00
2023-01-19T03:15:42.533Z,516.00
2023-01-19T03:16:42.566Z,515.00
2023-01-19T03:17:42.467Z,512.00
2023-01-19T03:18:42.482Z,516.00
2023-01-19T03:19:42.453Z,516.00
2023-01-19T03:20:42.438Z,506.00
2023-01-19T03:21:42.426Z,509.00
2023-01-19T03:22:42.417Z,514.00
2023-01-19T03:23:42.410Z,513.00
2023-01-19T03:24:42.410Z,514.00
2023-01-19T03:25:42.392Z,511.00
2023-01-19T03:26:42.388Z,510.00
2023-01-19T03:27:42.376Z,514.00
2023-01-19T03:28:42.369Z,510.00
2023-01-19T03:29:42.354Z,513.00
2023-01-19T03:30:42.437Z,507.00
2023-01-19T03:31:42.345Z,505.00
2023-01-19T03:32:42.333Z,508.00
2023-01-19T03:33:42.325Z,510.00
2023-01-19T03:34:42.334Z,511.00
2023-01-19T03:35:42.315Z,505.00
2023-01-19T03:36:42.288Z,515.00
2023-01-19T03:37:42.289Z,510.00
2023-01-19T03:38:42.275Z,505.00
2023-01-19T03:39:42.274Z,516.00
2023-01-19T03:40:42.258Z,510.00
2023-01-19T03:41:42.243Z,512.00
2023-01-19T03:42:42.240Z,513.00
2023-01-19T03:43:42.227Z,509.00
2023-01-19T03:44:42.217Z,514.00
2023-01-19T03:45:42.207Z,513.00
2023-01-19T03:46:42.203Z,509.00
2023-01-19T03:47:42.189Z,514.00
2023-01-19T03:48:42.194Z,504.00
2023-01-19T03:49:42.173Z,508.00
2023-01-19T03:50:42.189Z,510.00
2023-01-19T03:51:42.173Z,507.00
2023-01-19T03:52:42.147Z,514.00
2023-01-19T03:53:42.140Z,510.00
2023-01-19T03:54:42.138Z,505.00
2023-01-19T03:55:42.120Z,515.00
2023-01-19T03:56:42.114Z,510.00
2023-01-19T03:57:42.105Z,515.00
2023-01-19T03:58:42.090Z,513.00
2023-01-19T03:59:42.086Z,515.00
2023-01-19T04:00:42.069Z,505.00
2023-01-19T04:01:42.189Z,509.00
2023-01-19T04:02:42.124Z,507.00
2023-01-19T04:03:42.041Z,505.00
2023-01-19T04:04:42.041Z,515.00
2023-01-19T04:05:42.025Z,505.00
2023-01-19T04:06:42.041Z,514.00
2023-01-19T04:07:42.011Z,510.00
2023-01-19T04:08:42.001Z,500.00
2023-01-19T04:09:41.988Z,512.00
2023-01-19T04:10:41.995Z,522.00
2023-01-19T04:11:41.969Z,512.00
2023-01-19T04:12:41.995Z,513.00
2023-01-19T04:13:41.963Z,508.00
2023-01-19T04:14:41.944Z,514.00
2023-01-19T04:15:42.024Z,507.00
2023-01-19T04:16:41.934Z,507.00
2023-01-19T04:17:41.919Z,512.00
2023-01-19T04:18:41.907Z,510.00
2023-01-19T04:19:41.899Z,509.00
2023-01-19T04:20:41.890Z,513.00
2023-01-19T04:21:41.883Z,514.00
2023-01-19T04:22:41.895Z,515.00
2023-01-19T04:23:41.862Z,510.00
2023-01-19T04:24:41.856Z,514.00
2023-01-19T04:25:41.856Z,510.00
2023-01-19T04:26:41.837Z,516.00
2023-01-19T04:27:41.824Z,513.00
2023-01-19T04:28:41.826Z,511.00
2023-01-19T04:29:41.810Z,512.00
2023-01-19T04:30:41.800Z,513.00
2023-01-19T04:31:41.803Z,512.00
2023-01-19T04:32:41.793Z,516.00
2023-01-19T04:33:41.772Z,512.00
2023-01-19T04:34:41.764Z,509.00
2023-01-19T04:35:41.759Z,509.00
2023-01-19T04:36:41.750Z,513.00
2023-01-19T04:37:41.740Z,515.00
2023-01-19T04:38:41.754Z,519.00
2023-01-19T04:39:41.721Z,517.00
2023-01-19T04:40:41.706Z,512.00
2023-01-19T04:41:41.696Z,512.00
2023-01-19T04:42:41.688Z,516.00
2023-01-19T04:43:41.723Z,511.00
2023-01-19T04:44:41.682Z,515.00
2023-01-19T04:45:41.662Z,513.00
2023-01-19T04:46:41.786Z,514.00
2023-01-19T04:47:41.638Z,513.00
2023-01-19T04:48:42.297Z,509.00
2023-01-19T04:49:41.665Z,514.00
2023-01-19T04:50:41.620Z,510.00
2023-01-19T04:51:41.606Z,513.00
2023-01-19T04:52:41.596Z,511.00
2023-01-19T04:53:41.587Z,515.00
2023-01-19T04:54:41.624Z,510.00
2023-01-19T04:55:41.568Z,518.00
2023-01-19T04:56:41.556Z,507.00
2023-01-19T04:57:41.560Z,512.00
2023-01-19T04:58:41.556Z,515.00
2023-01-19T04:59:41.545Z,512.00
2023-01-19T05:00:41.527Z,516.00
2023-01-19T05:01:41.637Z,509.00
2023-01-19T05:02:41.572Z,510.00
2023-01-19T05:03:41.498Z,513.00
2023-01-19T05:04:41.489Z,514.00
2023-01-19T05:05:41.484Z,513.00
2023-01-19T05:06:41.470Z,513.00
2023-01-19T05:07:41.461Z,509.00
2023-01-19T05:08:42.200Z,509.00
2023-01-19T05:09:41.442Z,518.00
2023-01-19T05:10:41.459Z,526.00
2023-01-19T05:11:41.425Z,511.00
2023-01-19T05:12:41.414Z,517.00
2023-01-19T05:13:41.405Z,511.00
2023-01-19T05:14:41.397Z,511.00
2023-01-19T05:15:41.389Z,513.00
2023-01-19T05:16:41.384Z,505.00
2023-01-19T05:17:41.375Z,513.00
2023-01-19T05:18:41.358Z,512.00
2023-01-19T05:19:41.347Z,515.00
2023-01-19T05:20:41.342Z,510.00
2023-01-19T05:21:41.358Z,514.00
2023-01-19T05:22:41.336Z,510.00
2023-01-19T05:23:41.325Z,504.00
2023-01-19T05:24:41.304Z,510.00
2023-01-19T05:25:41.329Z,513.00
2023-01-19T05:26:41.317Z,508.00
2023-01-19T05:27:41.287Z,514.00
2023-01-19T05:28:41.273Z,518.00
2023-01-19T05:29:41.262Z,510.00
2023-01-19T05:30:41.291Z,509.00
2023-01-19T05:31:41.285Z,516.00
2023-01-19T05:32:41.249Z,516.00
2023-01-19T05:33:41.261Z,513.00
2023-01-19T05:34:41.215Z,514.00
2023-01-19T05:35:41.205Z,511.00
2023-01-19T05:36:41.205Z,517.00
2023-01-19T05:37:41.193Z,514.00
2023-01-19T05:38:41.188Z,510.00
2023-01-19T05:39:41.179Z,516.00
2023-01-19T05:40:41.181Z,511.00
2023-01-19T05:41:41.155Z,517.00
2023-01-19T05:42:41.166Z,518.00
2023-01-19T05:43:41.177Z,514.00
2023-01-19T05:44:41.161Z,517.00
2023-01-19T05:45:41.135Z,510.00
2023-01-19T05:46:41.208Z,509.00
2023-01-19T05:47:41.154Z,515.00
2023-01-19T05:48:41.100Z,510.00
2023-01-19T05:49:41.097Z,516.00
2023-01-19T05:50:41.078Z,513.00
2023-01-19T05:51:41.070Z,519.00
2023-01-19T05:52:41.053Z,521.00
2023-01-19T05:53:41.052Z,512.00
2023-01-19T05:54:41.030Z,506.00
2023-01-19T05:55:41.027Z,511.00
2023-01-19T05:56:41.014Z,516.00
2023-01-19T05:57:41.007Z,512.00
2023-01-19T05:58:41.027Z,514.00
2023-01-19T05:59:40.996Z,510.00
2023-01-19T06:00:40.984Z,518.00
2023-01-19T06:01:41.007Z,513.00
2023-01-19T06:02:41.105Z,514.00
2023-01-19T06:03:40.967Z,516.00
2023-01-19T06:04:40.943Z,510.00
2023-01-19T06:05:40.969Z,517.00
2023-01-19T06:06:40.929Z,515.00
2023-01-19T06:07:40.919Z,512.00
2023-01-19T06:08:40.904Z,517.00
2023-01-19T06:09:40.895Z,519.00
2023-01-19T06:10:40.884Z,513.00
2023-01-19T06:11:40.894Z,515.00
2023-01-19T06:12:41.013Z,516.00
2023-01-19T06:13:42.087Z,514.00
2023-01-19T06:14:40.903Z,521.00
2023-01-19T06:15:40.850Z,515.00
2023-01-19T06:16:40.870Z,517.00
2023-01-19T06:17:40.847Z,513.00
2023-01-19T06:18:40.974Z,516.00
2023-01-19T06:19:40.811Z,517.00
2023-01-19T06:20:40.796Z,510.00
2023-01-19T06:21:40.797Z,519.00
2023-01-19T06:22:40.795Z,523.00
2023-01-19T06:23:40.986Z,558.00
2023-01-19T06:24:40.758Z,545.00
2023-01-19T06:25:40.748Z,565.00
2023-01-19T06:26:40.757Z,555.00
2023-01-19T06:27:40.731Z,558.00
2023-01-19T06:28:40.990Z,560.00
2023-01-19T06:29:40.719Z,554.00
2023-01-19T06:30:40.783Z,557.00
2023-01-19T06:31:40.703Z,550.00
2023-01-19T06:32:40.698Z,552.00
2023-01-19T06:33:40.681Z,551.00
2023-01-19T06:34:40.673Z,564.00
2023-01-19T06:35:40.659Z,565.00
2023-01-19T06:36:40.657Z,580.00
2023-01-19T06:37:41.101Z,575.00
2023-01-19T06:38:40.633Z,566.00
2023-01-19T06:39:41.005Z,574.00
2023-01-19T06:40:40.619Z,584.00
2023-01-19T06:41:40.620Z,589.00
2023-01-19T06:42:40.597Z,606.00
2023-01-19T06:43:40.590Z,602.00
2023-01-19T06:44:40.991Z,626.00
2023-01-19T06:45:40.639Z,637.00
2023-01-19T06:46:40.599Z,639.00
2023-01-19T06:47:41.001Z,641.00
2023-01-19T06:48:40.548Z,642.00
2023-01-19T06:49:40.989Z,659.00
2023-01-19T06:50:40.550Z,695.00
2023-01-19T06:51:40.525Z,698.00
2023-01-19T06:52:40.622Z,693.00
2023-01-19T06:54:40.993Z,711.00
2023-01-19T06:55:40.501Z,712.00
2023-01-19T06:56:40.475Z,653.00
2023-01-19T06:57:40.476Z,715.00
2023-01-19T06:58:40.491Z,735.00
2023-01-19T06:59:40.781Z,780.00
2023-01-19T07:00:40.446Z,800.00
2023-01-19T07:02:41.599Z,822.00
2023-01-19T07:04:41.409Z,747.00
2023-01-19T07:06:40.392Z,785.00
2023-01-19T07:08:40.370Z,802.00
2023-01-19T07:09:41.373Z,810.00
2023-01-19T07:11:25.730Z,821.00
2023-01-19T07:12:40.527Z,804.00
2023-01-19T07:13:40.335Z,811.00
2023-01-19T07:14:43.536Z,821.00
2023-01-19T07:15:40.310Z,804.00
2023-01-19T07:16:40.325Z,811.00
2023-01-19T07:17:40.502Z,827.00
2023-01-19T07:18:40.318Z,843.00
2023-01-19T07:19:40.303Z,867.00
2023-01-19T07:20:40.273Z,856.00
2023-01-19T07:21:40.276Z,900.00
2023-01-19T07:22:40.511Z,863.00
2023-01-19T07:23:40.248Z,878.00
2023-01-19T07:24:40.235Z,869.00
2023-01-19T07:25:40.224Z,853.00
2023-01-19T07:26:40.508Z,880.00
2023-01-19T07:27:40.614Z,854.00
2023-01-19T07:28:40.229Z,867.00
2023-01-19T07:29:40.212Z,849.00
2023-01-19T07:30:40.332Z,860.00
2023-01-19T07:31:40.687Z,880.00
2023-01-19T07:33:40.197Z,874.00
2023-01-19T07:34:40.213Z,877.00
2023-01-19T07:35:40.142Z,866.00
2023-01-19T07:36:40.883Z,864.00
2023-01-19T07:39:40.149Z,867.00
2023-01-19T07:40:40.195Z,853.00
2023-01-19T07:41:40.958Z,847.00
2023-01-19T07:45:40.614Z,832.00
2023-01-19T07:46:40.214Z,829.00
2023-01-19T07:47:40.224Z,819.00
2023-01-19T07:48:40.134Z,836.00
2023-01-19T07:49:40.180Z,814.00
2023-01-19T07:50:40.573Z,824.00
2023-01-19T07:52:40.109Z,817.00
2023-01-19T07:53:43.740Z,796.00
2023-01-19T07:55:40.182Z,800.00
2023-01-19T07:56:40.075Z,798.00
2023-01-19T07:57:40.069Z,803.00
2023-01-19T07:58:40.052Z,809.00
2023-01-19T07:59:40.288Z,809.00
2023-01-19T08:01:40.256Z,780.00
2023-01-19T08:02:40.012Z,786.00
2023-01-19T08:03:40.081Z,743.00
2023-01-19T08:05:39.985Z,765.00
2023-01-19T08:07:39.962Z,760.00
2023-01-19T08:08:39.975Z,754.00
2023-01-19T08:09:39.930Z,731.00
2023-01-19T08:10:39.931Z,716.00
2023-01-19T08:11:40.967Z,705.00
2023-01-19T08:12:40.051Z,724.00
2023-01-19T08:13:40.064Z,740.00
2023-01-19T08:14:40.897Z,722.00
2023-01-19T08:15:39.913Z,726.00
2023-01-19T08:16:39.901Z,726.00
2023-01-19T08:17:40.063Z,720.00
2023-01-19T08:18:39.884Z,722.00
2023-01-19T08:19:41.525Z,716.00
2023-01-19T08:20:39.821Z,723.00
2023-01-19T08:21:40.067Z,742.00
2023-01-19T08:23:40.205Z,728.00
2023-01-19T08:24:39.835Z,726.00
2023-01-19T08:26:39.829Z,704.00
2023-01-19T08:27:39.757Z,726.00
2023-01-19T08:29:39.777Z,714.00
2023-01-19T08:30:39.951Z,696.00
2023-01-19T08:31:39.984Z,713.00
2023-01-19T08:32:39.860Z,706.00
2023-01-19T08:34:11.880Z,693.00
2023-01-19T08:35:40.765Z,696.00
2023-01-19T08:36:39.706Z,702.00
2023-01-19T08:37:39.689Z,692.00
2023-01-19T08:38:40.096Z,668.00
2023-01-19T08:39:42.869Z,688.00
2023-01-19T08:40:39.716Z,689.00
2023-01-19T08:41:39.660Z,690.00
2023-01-19T08:42:42.850Z,690.00
2023-01-19T08:43:40.078Z,690.00
2023-01-19T08:44:49.723Z,703.00
2023-01-19T08:45:39.626Z,693.00
2023-01-19T08:47:39.701Z,732.00
2023-01-19T08:48:40.206Z,762.00
2023-01-19T08:49:40.082Z,820.00
2023-01-19T08:50:39.623Z,834.00
2023-01-19T08:51:39.552Z,836.00
2023-01-19T08:52:39.529Z,865.00
2023-01-19T08:53:39.535Z,783.00
2023-01-19T08:54:39.600Z,866.00
2023-01-19T08:55:39.529Z,883.00
2023-01-19T08:56:39.634Z,875.00
2023-01-19T08:57:39.509Z,889.00
2023-01-19T08:58:39.503Z,729.00
2023-01-19T08:59:39.568Z,626.00
2023-01-19T09:00:39.530Z,619.00
2023-01-19T09:01:39.588Z,592.00
2023-01-19T09:02:39.618Z,631.00
2023-01-19T09:03:39.457Z,646.00
2023-01-19T09:04:39.647Z,644.00
2023-01-19T09:05:39.428Z,652.00
2023-01-19T09:06:39.404Z,738.00
2023-01-19T09:07:39.423Z,674.00
2023-01-19T09:08:39.394Z,708.00
2023-01-19T09:09:39.553Z,749.00
2023-01-19T09:10:39.407Z,766.00
2023-01-19T09:11:39.361Z,801.00
2023-01-19T09:12:39.556Z,807.00
2023-01-19T09:13:39.338Z,842.00
2023-01-19T09:14:39.549Z,853.00
2023-01-19T09:15:39.491Z,867.00
2023-01-19T09:16:40.335Z,881.00
2023-01-19T09:17:39.307Z,888.00
2023-01-19T09:18:39.307Z,897.00
2023-01-19T09:19:39.294Z,913.00
2023-01-19T09:20:39.326Z,931.00
2023-01-19T09:21:39.272Z,952.00
2023-01-19T09:22:39.603Z,937.00
2023-01-19T09:23:39.257Z,954.00
2023-01-19T09:24:39.280Z,972.00
2023-01-19T09:25:39.246Z,993.00
2023-01-19T09:26:39.385Z,1003.00
2023-01-19T09:27:39.558Z,1014.00
2023-01-19T09:28:39.214Z,1032.00
2023-01-19T09:29:39.207Z,1045.00
2023-01-19T09:30:39.244Z,1047.00
2023-01-19T09:31:39.206Z,1056.00
2023-01-19T09:32:39.553Z,1070.00
2023-01-19T09:33:39.167Z,1076.00
2023-01-19T09:34:39.157Z,1094.00
2023-01-19T09:35:39.562Z,613.00
2023-01-19T09:36:39.155Z,515.00
2023-01-19T09:37:39.198Z,512.00
2023-01-19T09:38:39.143Z,501.00
2023-01-19T09:39:39.123Z,490.00
2023-01-19T09:40:41.929Z,500.00
2023-01-19T09:41:39.101Z,500.00
2023-01-19T09:42:39.129Z,510.00
2023-01-19T09:43:39.088Z,546.00
2023-01-19T09:44:39.676Z,589.00
2023-01-19T09:45:39.743Z,660.00
2023-01-19T09:46:39.781Z,704.00
2023-01-19T09:47:39.059Z,583.00
2023-01-19T09:48:39.037Z,520.00
2023-01-19T09:49:39.033Z,517.00
2023-01-19T09:50:39.801Z,557.00
2023-01-19T09:51:39.070Z,553.00
2023-01-19T09:52:39.066Z,553.00
2023-01-19T09:53:38.993Z,538.00
2023-01-19T09:54:38.990Z,555.00
2023-01-19T09:55:38.972Z,587.00
2023-01-19T09:56:38.959Z,633.00
2023-01-19T09:57:39.066Z,658.00
2023-01-19T09:58:39.038Z,675.00
2023-01-19T09:59:38.950Z,712.00
2023-01-19T10:00:39.149Z,722.00
2023-01-19T10:01:38.963Z,735.00
2023-01-19T10:02:38.981Z,763.00
2023-01-19T10:03:38.897Z,780.00
2023-01-19T10:04:38.924Z,808.00
2023-01-19T10:05:39.073Z,840.00
2023-01-19T10:06:39.071Z,846.00
2023-01-19T10:07:38.861Z,866.00
2023-01-19T10:08:38.857Z,877.00
2023-01-19T10:09:38.861Z,907.00
2023-01-19T10:10:39.073Z,912.00
2023-01-19T10:11:51.931Z,928.00
2023-01-19T10:12:38.832Z,931.00
2023-01-19T10:13:38.805Z,940.00
2023-01-19T10:14:38.822Z,951.00
2023-01-19T10:15:39.080Z,974.00
2023-01-19T10:16:38.793Z,1018.00
2023-01-19T10:17:38.776Z,1034.00
2023-01-19T10:18:38.768Z,1032.00
2023-01-19T10:19:38.751Z,1036.00
2023-01-19T10:20:39.076Z,1060.00
2023-01-19T10:21:38.741Z,1068.00
2023-01-19T10:22:38.791Z,1065.00
2023-01-19T10:23:38.723Z,1084.00
2023-01-19T10:24:38.710Z,1106.00
2023-01-19T10:25:39.138Z,1106.00
2023-01-19T10:26:38.697Z,1115.00
2023-01-19T10:27:38.723Z,1121.00
2023-01-19T10:28:38.698Z,1138.00
2023-01-19T10:29:38.715Z,1151.00
2023-01-19T10:30:38.981Z,1164.00
2023-01-19T10:31:39.311Z,1175.00
2023-01-19T10:32:38.825Z,997.00
2023-01-19T10:33:38.656Z,623.00
2023-01-19T10:34:38.625Z,644.00
2023-01-19T10:35:38.614Z,647.00
2023-01-19T10:37:38.660Z,782.00
2023-01-19T10:38:38.631Z,781.00
2023-01-19T10:39:38.896Z,812.00
2023-01-19T10:40:38.597Z,842.00
2023-01-19T10:41:38.635Z,871.00
2023-01-19T10:42:38.655Z,914.00
2023-01-19T10:43:38.550Z,918.00
2023-01-19T10:44:38.590Z,933.00
2023-01-19T10:45:38.599Z,954.00
2023-01-19T10:46:38.668Z,969.00
2023-01-19T10:47:38.503Z,991.00
2023-01-19T10:48:38.518Z,1015.00
2023-01-19T10:49:38.593Z,1040.00
2023-01-19T10:50:38.591Z,1043.00
2023-01-19T10:51:38.469Z,1070.00
2023-01-19T10:52:38.610Z,1117.00
2023-01-19T10:53:38.457Z,1097.00
2023-01-19T10:54:38.450Z,1122.00
2023-01-19T10:55:38.439Z,1122.00
2023-01-19T10:56:38.547Z,1132.00
2023-01-19T10:57:38.447Z,1163.00
2023-01-19T10:58:38.434Z,1162.00
2023-01-19T10:59:38.491Z,1181.00
2023-01-19T11:00:38.546Z,1185.00
2023-01-19T11:01:38.680Z,1204.00
2023-01-19T11:02:38.658Z,1212.00
2023-01-19T11:03:38.432Z,1208.00
2023-01-19T11:04:38.414Z,1230.00
2023-01-19T11:05:38.624Z,1247.00
2023-01-19T11:06:38.611Z,1249.00
2023-01-19T11:07:38.341Z,1261.00
2023-01-19T11:08:38.584Z,1284.00
2023-01-19T11:09:38.331Z,1284.00
2023-01-19T11:10:37.312Z,1303.00
2023-01-19T11:11:38.602Z,1291.00
2023-01-19T11:12:38.345Z,1317.00
2023-01-19T11:13:38.288Z,1327.00
2023-01-19T11:14:38.282Z,1337.00
2023-01-19T11:15:38.275Z,1335.00
2023-01-19T11:16:38.633Z,1349.00
2023-01-19T11:17:38.251Z,1375.00
2023-01-19T11:18:38.268Z,1366.00
2023-01-19T11:19:38.231Z,1390.00
2023-01-19T11:20:38.231Z,1341.00
2023-01-19T11:21:38.602Z,1058.00
2023-01-19T11:22:39.097Z,993.00
2023-01-19T11:23:38.225Z,980.00
2023-01-19T11:24:38.204Z,881.00
2023-01-19T11:25:38.183Z,766.00
2023-01-19T11:26:38.609Z,738.00
2023-01-19T11:27:38.617Z,685.00
2023-01-19T11:28:38.150Z,685.00
2023-01-19T11:29:38.144Z,644.00
2023-01-19T11:30:38.133Z,613.00
2023-01-19T11:31:38.675Z,602.00
2023-01-19T11:32:38.162Z,614.00
2023-01-19T11:33:38.115Z,590.00
2023-01-19T11:34:38.583Z,583.00
2023-01-19T11:35:38.109Z,565.00
2023-01-19T11:36:38.568Z,551.00
2023-01-19T11:37:38.491Z,559.00
2023-01-19T11:38:38.065Z,555.00
2023-01-19T11:39:38.480Z,544.00
2023-01-19T11:40:38.043Z,560.00
2023-01-19T11:41:38.110Z,553.00
2023-01-19T11:42:38.045Z,540.00
2023-01-19T11:43:48.708Z,526.00
2023-01-19T11:44:38.009Z,526.00
2023-01-19T11:45:38.180Z,528.00
2023-01-19T11:46:37.990Z,510.00
2023-01-19T11:47:37.999Z,500.00
2023-01-19T11:48:37.980Z,501.00
2023-01-19T11:49:38.114Z,511.00
2023-01-19T11:50:37.993Z,400.00
2023-01-19T11:51:37.946Z,432.00
2023-01-19T11:52:37.940Z,475.00
2023-01-19T11:53:37.940Z,505.00
2023-01-19T11:54:37.925Z,498.00
2023-01-19T11:55:37.907Z,503.00
2023-01-19T11:56:37.906Z,513.00
2023-01-19T11:57:37.915Z,572.00
2023-01-19T11:58:37.889Z,586.00
2023-01-19T11:59:37.873Z,585.00
2023-01-19T12:00:37.872Z,599.00
2023-01-19T12:01:37.856Z,602.00
2023-01-19T12:02:38.121Z,601.00
2023-01-19T12:03:37.892Z,607.00
2023-01-19T12:04:37.827Z,613.00
2023-01-19T12:05:38.014Z,616.00
2023-01-19T12:06:37.831Z,619.00
2023-01-19T12:07:38.198Z,647.00
2023-01-19T12:08:37.792Z,720.00
2023-01-19T12:09:38.689Z,833.00
2023-01-19T12:10:37.770Z,979.00
2023-01-19T12:11:37.767Z,1027.00
2023-01-19T12:12:38.131Z,1093.00
2023-01-19T12:13:37.744Z,1117.00
2023-01-19T12:14:37.731Z,1144.00
2023-01-19T12:15:37.735Z,1082.00
2023-01-19T12:16:37.828Z,1146.00
2023-01-19T12:17:38.152Z,1200.00
2023-01-19T12:18:37.725Z,1209.00
2023-01-19T12:19:37.689Z,1303.00
2023-01-19T12:20:37.682Z,1334.00
2023-01-19T12:21:38.120Z,1356.00
2023-01-19T12:22:37.710Z,1367.00
2023-01-19T12:23:37.664Z,1364.00
2023-01-19T12:24:37.737Z,1353.00
2023-01-19T12:25:37.633Z,1353.00
2023-01-19T12:26:38.171Z,1350.00
2023-01-19T12:27:37.618Z,1368.00
2023-01-19T12:28:37.604Z,1377.00
2023-01-19T12:29:37.592Z,1383.00
2023-01-19T12:30:37.752Z,1378.00
2023-01-19T12:31:37.715Z,1380.00
2023-01-19T12:32:37.628Z,1369.00
2023-01-19T12:33:37.578Z,1386.00
2023-01-19T12:34:37.554Z,1379.00
2023-01-19T12:35:37.538Z,1378.00
2023-01-19T12:36:37.542Z,1362.00
2023-01-19T12:37:37.720Z,1383.00
2023-01-19T12:38:37.564Z,1375.00
2023-01-19T12:39:37.514Z,1385.00
2023-01-19T12:40:37.492Z,1383.00
2023-01-19T12:41:37.490Z,1384.00
2023-01-19T12:42:37.638Z,1379.00
2023-01-19T12:43:37.641Z,1406.00
2023-01-19T12:44:37.461Z,1387.00
2023-01-19T12:45:37.456Z,1412.00
2023-01-19T12:46:37.440Z,1399.00
2023-01-19T12:47:37.439Z,1403.00
2023-01-19T12:48:37.455Z,1401.00
2023-01-19T12:49:37.412Z,1390.00
2023-01-19T12:50:37.411Z,1412.00
2023-01-19T12:51:37.397Z,1409.00
2023-01-19T12:52:37.395Z,1385.00
2023-01-19T12:53:37.377Z,1394.00
2023-01-19T12:54:37.718Z,1408.00
2023-01-19T12:55:38.377Z,1388.00
2023-01-19T12:56:37.352Z,1403.00
2023-01-19T12:57:37.345Z,1411.00
2023-01-19T12:58:37.333Z,1399.00
2023-01-19T12:59:37.330Z,1396.00
2023-01-19T13:00:37.312Z,1407.00
2023-01-19T13:01:37.501Z,1389.00
2023-01-19T13:02:37.737Z,1410.00
2023-01-19T13:03:37.297Z,1411.00
2023-01-19T13:04:37.283Z,1395.00
2023-01-19T13:05:37.275Z,1408.00
2023-01-19T13:06:37.647Z,1395.00
2023-01-19T13:07:37.259Z,1402.00
2023-01-19T13:08:37.644Z,1408.00
2023-01-19T13:09:37.232Z,1397.00
2023-01-19T13:10:37.251Z,1393.00
2023-01-19T13:11:37.215Z,1394.00
2023-01-19T13:12:37.205Z,1397.00
2023-01-19T13:13:37.664Z,1400.00
2023-01-19T13:14:37.643Z,1397.00
2023-01-19T13:15:37.217Z,1380.00
2023-01-19T13:16:37.675Z,1387.00
2023-01-19T13:17:37.159Z,1380.00
2023-01-19T13:18:37.657Z,1388.00
2023-01-19T13:19:37.787Z,1393.00
2023-01-19T13:20:37.472Z,1396.00
2023-01-19T13:21:37.122Z,1384.00
2023-01-19T13:22:37.185Z,1381.00
2023-01-19T13:23:37.105Z,1376.00
2023-01-19T13:24:37.096Z,1378.00
2023-01-19T13:25:37.089Z,1369.00
2023-01-19T13:26:37.174Z,1379.00
2023-01-19T13:27:37.071Z,1373.00
2023-01-19T13:28:37.068Z,1377.00
2023-01-19T13:29:37.069Z,1386.00
2023-01-19T13:30:37.190Z,1397.00
2023-01-19T13:31:37.210Z,1378.00
2023-01-19T13:32:37.022Z,1379.00
2023-01-19T13:33:38.622Z,1379.00
2023-01-19T13:34:37.006Z,1380.00
2023-01-19T13:35:37.012Z,1381.00
2023-01-19T13:36:37.000Z,1370.00
2023-01-19T13:38:08.792Z,1385.00
2023-01-19T13:39:37.011Z,1384.00
2023-01-19T13:40:36.994Z,1387.00